PWSweather.com
Personal Weather Stations
Station Observations
VPOKROGLO
Kal Nad Kanalom, PrimorskaSI

Kal Nad KanalomPrimorskaSI

Lat: 46.072, Lon: 13.734

Elevation: 2526

Station Type: WS-2355

https://okroglovreme.com

Latest ConditionsUpdated 11:00:00 PM GMT+01:01 Sunday, Jan 19, 2020
Currently Today's Max Today's Min Today's Average
Temperature 33.1°F0.6°C 42.8°F6.0°C 32.9°F0.5°C 35.9°F2.2°C
Dew Point 23.3°F-4.8°C 28.2°F-2.1°C 21.1°F-6.1°C 25.7°F-3.5°C
Winds 4.7 mph E7.6 kmh E 6.9 mph -11.1 kmh - - 4.3 mph 6.9 kmh
Wind Gusts 13.4 mph21.6 kmh 15.9 mph25.6 kmh - -
Humidity 67% 79% 53% 67%
Pressure 30.53 in1033.9 mb 30.53 in1033.9 mb 30.20 in1022.7 mb -
Hour Temp Dew Point Humidity Winds Wind Gusts Pressure Precip Precip Rate Daily Precip Total
11:00 PM 33.1°F0.6°C 23.3°F-4.8°C 67% 4.7 mph E7.6 kmh E 13.4 mph21.6 kmh 30.53 in1033.9 mb 0.00 in0.0 mm 0.00 in0.0 mm 0.00 in0.0 mm
10:45 PM 33.1°F0.6°C 22.9°F-5.1°C 66% 2.9 mph ENE4.7 kmh ENE 11.9 mph19.2 kmh 30.53 in1033.9 mb 0.00 in0.0 mm 0.00 in0.0 mm 0.00 in0.0 mm
10:30 PM 33.4°F0.8°C 22.9°F-5.1°C 65% 3.9 mph E6.3 kmh E 9.2 mph14.8 kmh 30.53 in1033.9 mb 0.00 in0.0 mm 0.00 in0.0 mm 0.00 in0.0 mm
10:15 PM 33.4°F0.8°C 23.3°F-4.8°C 66% 3.6 mph E5.8 kmh E 9.2 mph14.8 kmh 30.52 in1033.5 mb 0.00 in0.0 mm 0.00 in0.0 mm 0.00 in0.0 mm
10:00 PM 33.1°F0.6°C 23.3°F-4.8°C 67% 2.8 mph SE4.5 kmh SE 8.5 mph13.7 kmh 30.52 in1033.5 mb 0.00 in0.0 mm 0.00 in0.0 mm 0.00 in0.0 mm
09:45 PM 33.3°F0.7°C 23.1°F-4.9°C 66% 4.0 mph E6.4 kmh E 13.2 mph21.2 kmh 30.52 in1033.5 mb 0.00 in0.0 mm 0.00 in0.0 mm 0.00 in0.0 mm
09:30 PM 33.1°F0.6°C 23.3°F-4.8°C 67% 4.0 mph E6.4 kmh E 10.5 mph16.9 kmh 30.51 in1033.2 mb 0.00 in0.0 mm 0.00 in0.0 mm 0.00 in0.0 mm
09:15 PM 33.6°F0.9°C 23.5°F-4.7°C 66% 4.8 mph E7.7 kmh E 11.9 mph19.2 kmh 30.50 in1032.8 mb 0.00 in0.0 mm 0.00 in0.0 mm 0.00 in0.0 mm
09:00 PM 34.0°F1.1°C 23.1°F-4.9°C 64% 5.3 mph ENE8.5 kmh ENE 14.3 mph23.0 kmh 30.50 in1032.8 mb 0.00 in0.0 mm 0.00 in0.0 mm 0.00 in0.0 mm
08:45 PM 33.6°F0.9°C 23.5°F-4.7°C 66% 4.8 mph E7.7 kmh E 15.9 mph25.6 kmh 30.49 in1032.5 mb 0.00 in0.0 mm 0.00 in0.0 mm 0.00 in0.0 mm
08:30 PM 33.6°F0.9°C 23.5°F-4.7°C 66% 5.8 mph ENE9.3 kmh ENE 15.4 mph24.8 kmh 30.48 in1032.2 mb 0.00 in0.0 mm 0.00 in0.0 mm 0.00 in0.0 mm
08:15 PM 34.2°F1.2°C 22.9°F-5.1°C 63% 3.6 mph E5.8 kmh E 11.9 mph19.2 kmh 30.48 in1032.2 mb 0.00 in0.0 mm 0.00 in0.0 mm 0.00 in0.0 mm
08:00 PM 34.3°F1.3°C 21.9°F-5.6°C 60% 4.3 mph NE6.9 kmh NE 11.6 mph18.7 kmh 30.47 in1031.8 mb 0.00 in0.0 mm 0.00 in0.0 mm 0.00 in0.0 mm
07:45 PM 34.9°F1.6°C 21.6°F-5.8°C 58% 4.8 mph NE7.7 kmh NE 12.3 mph19.8 kmh 30.48 in1032.2 mb 0.00 in0.0 mm 0.00 in0.0 mm 0.00 in0.0 mm
07:30 PM 35.2°F1.8°C 21.5°F-5.8°C 57% 5.3 mph NE8.5 kmh NE 15.7 mph25.3 kmh 30.47 in1031.8 mb 0.00 in0.0 mm 0.00 in0.0 mm 0.00 in0.0 mm
07:15 PM 35.2°F1.8°C 21.1°F-6.1°C 56% 4.0 mph NE6.4 kmh NE 7.8 mph12.6 kmh 30.46 in1031.5 mb 0.00 in0.0 mm 0.00 in0.0 mm 0.00 in0.0 mm
07:00 PM 35.4°F1.9°C 21.3°F-5.9°C 56% 3.7 mph NE6.0 kmh NE 11.6 mph18.7 kmh 30.46 in1031.5 mb 0.00 in0.0 mm 0.00 in0.0 mm 0.00 in0.0 mm
06:45 PM 35.8°F2.1°C 21.6°F-5.8°C 56% 5.0 mph NE8.0 kmh NE 14.1 mph22.7 kmh 30.44 in1030.8 mb 0.00 in0.0 mm 0.00 in0.0 mm 0.00 in0.0 mm
06:30 PM 35.6°F2.0°C 22.3°F-5.4°C 58% 4.5 mph NE7.2 kmh NE 13.2 mph21.2 kmh 30.44 in1030.8 mb 0.00 in0.0 mm 0.00 in0.0 mm 0.00 in0.0 mm
06:15 PM 35.8°F2.1°C 22.8°F-5.1°C 59% 2.8 mph ENE4.5 kmh ENE 9.4 mph15.1 kmh 30.43 in1030.5 mb 0.00 in0.0 mm 0.00 in0.0 mm 0.00 in0.0 mm
06:00 PM 36.0°F2.2°C 23.0°F-5.0°C 59% 3.6 mph NE5.8 kmh NE 10.5 mph16.9 kmh 30.43 in1030.5 mb 0.00 in0.0 mm 0.00 in0.0 mm 0.00 in0.0 mm
05:45 PM 36.1°F2.3°C 23.6°F-4.7°C 60% 2.2 mph E3.5 kmh E 10.3 mph16.6 kmh 30.43 in1030.5 mb 0.00 in0.0 mm 0.00 in0.0 mm 0.00 in0.0 mm
05:30 PM 36.3°F2.4°C 23.8°F-4.6°C 60% 3.6 mph NE5.8 kmh NE 10.3 mph16.6 kmh 30.42 in1030.1 mb 0.00 in0.0 mm 0.00 in0.0 mm 0.00 in0.0 mm
05:15 PM 36.5°F2.5°C 23.9°F-4.5°C 60% 3.4 mph NE5.5 kmh NE 12.8 mph20.6 kmh 30.41 in1029.8 mb 0.00 in0.0 mm 0.00 in0.0 mm 0.00 in0.0 mm
05:00 PM 36.5°F2.5°C 24.3°F-4.3°C 61% 1.7 mph ESE2.7 kmh ESE 5.6 mph9.0 kmh 30.40 in1029.5 mb 0.00 in0.0 mm 0.00 in0.0 mm 0.00 in0.0 mm
04:45 PM 37.6°F3.1°C 24.1°F-4.4°C 58% 2.9 mph ENE4.7 kmh ENE 11.4 mph18.3 kmh 30.40 in1029.5 mb 0.00 in0.0 mm 0.00 in0.0 mm 0.00 in0.0 mm
04:30 PM 37.9°F3.3°C 23.6°F-4.7°C 56% 3.5 mph NE5.6 kmh NE 9.6 mph15.4 kmh 30.39 in1029.1 mb 0.00 in0.0 mm 0.00 in0.0 mm 0.00 in0.0 mm
04:15 PM 38.5°F3.6°C 23.7°F-4.6°C 55% 3.9 mph NE6.3 kmh NE 8.5 mph13.7 kmh 30.38 in1028.8 mb 0.00 in0.0 mm 0.00 in0.0 mm 0.00 in0.0 mm
04:00 PM 39.0°F3.9°C 24.2°F-4.3°C 55% 3.9 mph NE6.3 kmh NE 14.5 mph23.3 kmh 30.38 in1028.8 mb 0.00 in0.0 mm 0.00 in0.0 mm 0.00 in0.0 mm
03:45 PM 39.9°F4.4°C 25.0°F-3.9°C 55% 4.7 mph NNE7.6 kmh NNE 11.0 mph17.7 kmh 30.37 in1028.4 mb 0.00 in0.0 mm 0.00 in0.0 mm 0.00 in0.0 mm
03:30 PM 39.9°F4.4°C 25.5°F-3.6°C 56% 4.7 mph NE7.6 kmh NE 10.7 mph17.2 kmh 30.36 in1028.1 mb 0.00 in0.0 mm 0.00 in0.0 mm 0.00 in0.0 mm
03:15 PM 40.1°F4.5°C 25.6°F-3.6°C 56% 3.8 mph ENE6.1 kmh ENE 10.3 mph16.6 kmh 30.35 in1027.8 mb 0.00 in0.0 mm 0.00 in0.0 mm 0.00 in0.0 mm
03:00 PM 41.4°F5.2°C 26.8°F-2.9°C 56% 4.7 mph NNE7.6 kmh NNE 11.9 mph19.2 kmh 30.35 in1027.8 mb 0.00 in0.0 mm 0.00 in0.0 mm 0.00 in0.0 mm
02:45 PM 42.1°F5.6°C 27.1°F-2.7°C 55% 3.2 mph NE5.1 kmh NE 11.2 mph18.0 kmh 30.34 in1027.4 mb 0.00 in0.0 mm 0.00 in0.0 mm 0.00 in0.0 mm
02:30 PM 42.8°F6.0°C 26.8°F-2.9°C 53% 3.5 mph NE5.6 kmh NE 11.9 mph19.2 kmh 30.33 in1027.1 mb 0.00 in0.0 mm 0.00 in0.0 mm 0.00 in0.0 mm
02:15 PM 41.9°F5.5°C 26.4°F-3.1°C 54% 4.3 mph NE6.9 kmh NE 13.4 mph21.6 kmh 30.33 in1027.1 mb 0.00 in0.0 mm 0.00 in0.0 mm 0.00 in0.0 mm
02:00 PM 42.6°F5.9°C 27.1°F-2.7°C 54% 3.4 mph NE5.5 kmh NE 9.2 mph14.8 kmh 30.33 in1027.1 mb 0.00 in0.0 mm 0.00 in0.0 mm 0.00 in0.0 mm
01:45 PM 42.4°F5.8°C 27.0°F-2.8°C 54% 4.5 mph NE7.2 kmh NE 12.8 mph20.6 kmh 30.33 in1027.1 mb 0.00 in0.0 mm 0.00 in0.0 mm 0.00 in0.0 mm
01:30 PM 41.5°F5.3°C 26.1°F-3.3°C 54% 4.6 mph NE7.4 kmh NE 13.0 mph20.9 kmh 30.33 in1027.1 mb 0.00 in0.0 mm 0.00 in0.0 mm 0.00 in0.0 mm
01:15 PM 41.0°F5.0°C 26.1°F-3.3°C 55% 4.9 mph NE7.9 kmh NE 10.7 mph17.2 kmh 30.33 in1027.1 mb 0.00 in0.0 mm 0.00 in0.0 mm 0.00 in0.0 mm
01:00 PM 40.6°F4.8°C 25.7°F-3.5°C 55% 4.0 mph NE6.4 kmh NE 11.9 mph19.2 kmh 30.33 in1027.1 mb 0.00 in0.0 mm 0.00 in0.0 mm 0.00 in0.0 mm
12:45 PM 40.5°F4.7°C 26.0°F-3.3°C 56% 3.9 mph NE6.3 kmh NE 9.8 mph15.8 kmh 30.33 in1027.1 mb 0.00 in0.0 mm 0.00 in0.0 mm 0.00 in0.0 mm
12:30 PM 40.5°F4.7°C 25.5°F-3.6°C 55% 4.7 mph NE7.6 kmh NE 12.1 mph19.5 kmh 30.32 in1026.8 mb 0.00 in0.0 mm 0.00 in0.0 mm 0.00 in0.0 mm
12:15 PM 40.1°F4.5°C 26.1°F-3.3°C 57% 4.3 mph NE6.9 kmh NE 14.3 mph23.0 kmh 30.32 in1026.8 mb 0.00 in0.0 mm 0.00 in0.0 mm 0.00 in0.0 mm
12:00 PM 39.9°F4.4°C 26.3°F-3.2°C 58% 3.3 mph NE5.3 kmh NE 13.9 mph22.4 kmh 30.33 in1027.1 mb 0.00 in0.0 mm 0.00 in0.0 mm 0.00 in0.0 mm
11:45 AM 39.4°F4.1°C 25.8°F-3.4°C 58% 4.1 mph ENE6.6 kmh ENE 11.4 mph18.3 kmh 30.32 in1026.8 mb 0.00 in0.0 mm 0.00 in0.0 mm 0.00 in0.0 mm
11:30 AM 39.7°F4.3°C 27.0°F-2.8°C 60% 3.6 mph NE5.8 kmh NE 13.0 mph20.9 kmh 30.32 in1026.8 mb 0.00 in0.0 mm 0.00 in0.0 mm 0.00 in0.0 mm
11:15 AM 39.0°F3.9°C 26.3°F-3.2°C 60% 4.0 mph NE6.4 kmh NE 13.6 mph21.9 kmh 30.32 in1026.8 mb 0.00 in0.0 mm 0.00 in0.0 mm 0.00 in0.0 mm
11:00 AM 39.9°F4.4°C 26.7°F-2.9°C 59% 3.9 mph ENE6.3 kmh ENE 11.2 mph18.0 kmh 30.32 in1026.8 mb 0.00 in0.0 mm 0.00 in0.0 mm 0.00 in0.0 mm
10:45 AM 39.4°F4.1°C 27.0°F-2.8°C 61% 2.5 mph E4.0 kmh E 9.8 mph15.8 kmh 30.32 in1026.8 mb 0.00 in0.0 mm 0.00 in0.0 mm 0.00 in0.0 mm
10:30 AM 39.4°F4.1°C 27.4°F-2.6°C 62% 3.0 mph NE4.8 kmh NE 10.7 mph17.2 kmh 30.32 in1026.8 mb 0.00 in0.0 mm 0.00 in0.0 mm 0.00 in0.0 mm
10:15 AM 37.9°F3.3°C 26.8°F-2.9°C 64% 3.2 mph E5.1 kmh E 10.3 mph16.6 kmh 30.31 in1026.4 mb 0.00 in0.0 mm 0.00 in0.0 mm 0.00 in0.0 mm
10:00 AM 36.7°F2.6°C 26.0°F-3.3°C 65% 2.9 mph ENE4.7 kmh ENE 9.4 mph15.1 kmh 30.31 in1026.4 mb 0.00 in0.0 mm 0.00 in0.0 mm 0.00 in0.0 mm
09:45 AM 36.0°F2.2°C 25.7°F-3.5°C 66% 3.6 mph NE5.8 kmh NE 15.4 mph24.8 kmh 30.30 in1026.1 mb 0.00 in0.0 mm 0.00 in0.0 mm 0.00 in0.0 mm
09:30 AM 35.4°F1.9°C 25.9°F-3.4°C 68% 2.9 mph ENE4.7 kmh ENE 11.0 mph17.7 kmh 30.30 in1026.1 mb 0.00 in0.0 mm 0.00 in0.0 mm 0.00 in0.0 mm
09:15 AM 35.2°F1.8°C 26.1°F-3.3°C 69% 3.1 mph ENE5.0 kmh ENE 13.4 mph21.6 kmh 30.30 in1026.1 mb 0.00 in0.0 mm 0.00 in0.0 mm 0.00 in0.0 mm
09:00 AM 34.9°F1.6°C 26.1°F-3.3°C 70% 3.0 mph ENE4.8 kmh ENE 8.5 mph13.7 kmh 30.29 in1025.7 mb 0.00 in0.0 mm 0.00 in0.0 mm 0.00 in0.0 mm
08:45 AM 34.5°F1.4°C 26.4°F-3.1°C 72% 2.2 mph NE3.5 kmh NE 8.1 mph13.0 kmh 30.29 in1025.7 mb 0.00 in0.0 mm 0.00 in0.0 mm 0.00 in0.0 mm
08:30 AM 34.3°F1.3°C 26.6°F-3.0°C 73% 3.2 mph E5.1 kmh E 10.3 mph16.6 kmh 30.28 in1025.4 mb 0.00 in0.0 mm 0.00 in0.0 mm 0.00 in0.0 mm
08:15 AM 33.8°F1.0°C 26.7°F-2.9°C 75% 3.8 mph E6.1 kmh E 15.9 mph25.6 kmh 30.28 in1025.4 mb 0.00 in0.0 mm 0.00 in0.0 mm 0.00 in0.0 mm
08:00 AM 33.4°F0.8°C 26.7°F-2.9°C 76% 3.3 mph SE5.3 kmh SE 9.6 mph15.4 kmh 30.28 in1025.4 mb 0.00 in0.0 mm 0.00 in0.0 mm 0.00 in0.0 mm
07:45 AM 32.9°F0.5°C 26.5°F-3.1°C 77% 3.5 mph SSE5.6 kmh SSE 7.4 mph11.9 kmh 30.28 in1025.4 mb 0.00 in0.0 mm 0.00 in0.0 mm 0.00 in0.0 mm
07:30 AM 32.9°F0.5°C 26.8°F-2.9°C 78% 4.3 mph SSE6.9 kmh SSE 9.8 mph15.8 kmh 30.27 in1025.1 mb 0.00 in0.0 mm 0.00 in0.0 mm 0.00 in0.0 mm
07:15 AM 33.1°F0.6°C 27.0°F-2.8°C 78% 4.2 mph S6.8 kmh S 10.5 mph16.9 kmh 30.27 in1025.1 mb 0.00 in0.0 mm 0.00 in0.0 mm 0.00 in0.0 mm
07:00 AM 33.1°F0.6°C 27.0°F-2.8°C 78% 4.3 mph S6.9 kmh S 11.4 mph18.3 kmh 30.27 in1025.1 mb 0.00 in0.0 mm 0.00 in0.0 mm 0.00 in0.0 mm
06:45 AM 33.4°F0.8°C 27.0°F-2.8°C 77% 3.8 mph S6.1 kmh S 8.9 mph14.3 kmh 30.26 in1024.7 mb 0.00 in0.0 mm 0.00 in0.0 mm 0.00 in0.0 mm
06:30 AM 33.6°F0.9°C 27.2°F-2.7°C 77% 4.3 mph S6.9 kmh S 10.7 mph17.2 kmh 30.26 in1024.7 mb 0.00 in0.0 mm 0.00 in0.0 mm 0.00 in0.0 mm
06:15 AM 33.6°F0.9°C 27.2°F-2.7°C 77% 5.2 mph S8.4 kmh S 10.5 mph16.9 kmh 30.26 in1024.7 mb 0.00 in0.0 mm 0.00 in0.0 mm 0.00 in0.0 mm
06:00 AM 33.6°F0.9°C 27.2°F-2.7°C 77% 2.8 mph SSE4.5 kmh SSE 8.9 mph14.3 kmh 30.25 in1024.4 mb 0.00 in0.0 mm 0.00 in0.0 mm 0.00 in0.0 mm
05:45 AM 33.6°F0.9°C 27.5°F-2.5°C 78% 3.0 mph S4.8 kmh S 12.1 mph19.5 kmh 30.25 in1024.4 mb 0.00 in0.0 mm 0.00 in0.0 mm 0.00 in0.0 mm
05:30 AM 33.6°F0.9°C 27.5°F-2.5°C 78% 4.1 mph S6.6 kmh S 9.2 mph14.8 kmh 30.24 in1024.0 mb 0.00 in0.0 mm 0.00 in0.0 mm 0.00 in0.0 mm
05:15 AM 33.6°F0.9°C 27.5°F-2.5°C 78% 3.7 mph S6.0 kmh S 7.6 mph12.2 kmh 30.24 in1024.0 mb 0.00 in0.0 mm 0.00 in0.0 mm 0.00 in0.0 mm
05:00 AM 33.4°F0.8°C 27.3°F-2.6°C 78% 5.3 mph S8.5 kmh S 10.3 mph16.6 kmh 30.24 in1024.0 mb 0.00 in0.0 mm 0.00 in0.0 mm 0.00 in0.0 mm
04:45 AM 33.4°F0.8°C 27.6°F-2.4°C 79% 5.0 mph S8.0 kmh S 11.2 mph18.0 kmh 30.23 in1023.7 mb 0.00 in0.0 mm 0.00 in0.0 mm 0.00 in0.0 mm
04:30 AM 33.4°F0.8°C 27.6°F-2.4°C 79% 5.7 mph SSE9.2 kmh SSE 13.4 mph21.6 kmh 30.23 in1023.7 mb 0.00 in0.0 mm 0.00 in0.0 mm 0.00 in0.0 mm
04:15 AM 33.4°F0.8°C 27.6°F-2.4°C 79% 5.9 mph S9.5 kmh S 12.1 mph19.5 kmh 30.23 in1023.7 mb 0.00 in0.0 mm 0.00 in0.0 mm 0.00 in0.0 mm
04:00 AM 33.6°F0.9°C 27.5°F-2.5°C 78% 6.2 mph S10.0 kmh S 11.9 mph19.2 kmh 30.23 in1023.7 mb 0.00 in0.0 mm 0.00 in0.0 mm 0.00 in0.0 mm
03:45 AM 33.6°F0.9°C 27.5°F-2.5°C 78% 6.1 mph S9.8 kmh S 10.7 mph17.2 kmh 30.23 in1023.7 mb 0.00 in0.0 mm 0.00 in0.0 mm 0.00 in0.0 mm
03:30 AM 33.6°F0.9°C 27.5°F-2.5°C 78% 6.6 mph SSE10.6 kmh SSE 14.8 mph23.8 kmh 30.22 in1023.4 mb 0.00 in0.0 mm 0.00 in0.0 mm 0.00 in0.0 mm
03:15 AM 33.4°F0.8°C 27.3°F-2.6°C 78% 6.4 mph SSE10.3 kmh SSE 11.9 mph19.2 kmh 30.22 in1023.4 mb 0.00 in0.0 mm 0.00 in0.0 mm 0.00 in0.0 mm
03:00 AM 33.6°F0.9°C 27.5°F-2.5°C 78% 6.3 mph S10.1 kmh S 11.0 mph17.7 kmh 30.22 in1023.4 mb 0.00 in0.0 mm 0.00 in0.0 mm 0.00 in0.0 mm
02:45 AM 33.6°F0.9°C 27.5°F-2.5°C 78% 5.2 mph SSE8.4 kmh SSE 12.3 mph19.8 kmh 30.22 in1023.4 mb 0.00 in0.0 mm 0.00 in0.0 mm 0.00 in0.0 mm
02:30 AM 33.6°F0.9°C 27.5°F-2.5°C 78% 6.2 mph SE10.0 kmh SE 12.8 mph20.6 kmh 30.22 in1023.4 mb 0.00 in0.0 mm 0.00 in0.0 mm 0.00 in0.0 mm
02:15 AM 33.6°F0.9°C 27.5°F-2.5°C 78% 5.6 mph SE9.0 kmh SE 12.8 mph20.6 kmh 30.22 in1023.4 mb 0.00 in0.0 mm 0.00 in0.0 mm 0.00 in0.0 mm
02:00 AM 33.6°F0.9°C 27.2°F-2.7°C 77% 6.9 mph SE11.1 kmh SE 15.2 mph24.5 kmh 30.21 in1023.0 mb 0.00 in0.0 mm 0.00 in0.0 mm 0.00 in0.0 mm
01:45 AM 33.6°F0.9°C 27.5°F-2.5°C 78% 5.0 mph SE8.0 kmh SE 10.5 mph16.9 kmh 30.21 in1023.0 mb 0.00 in0.0 mm 0.00 in0.0 mm 0.00 in0.0 mm
01:30 AM 33.6°F0.9°C 27.5°F-2.5°C 78% 4.6 mph SSE7.4 kmh SSE 13.6 mph21.9 kmh 30.21 in1023.0 mb 0.00 in0.0 mm 0.00 in0.0 mm 0.00 in0.0 mm
01:15 AM 33.4°F0.8°C 27.6°F-2.4°C 79% 5.1 mph SSE8.2 kmh SSE 14.8 mph23.8 kmh 30.21 in1023.0 mb 0.00 in0.0 mm 0.00 in0.0 mm 0.00 in0.0 mm
01:00 AM 33.4°F0.8°C 27.6°F-2.4°C 79% 6.6 mph S10.6 kmh S 12.8 mph20.6 kmh 30.21 in1023.0 mb 0.00 in0.0 mm 0.00 in0.0 mm 0.00 in0.0 mm
12:45 AM 33.4°F0.8°C 27.6°F-2.4°C 79% 6.9 mph S11.1 kmh S 13.6 mph21.9 kmh 30.20 in1022.7 mb 0.00 in0.0 mm 0.00 in0.0 mm 0.00 in0.0 mm
12:30 AM 33.6°F0.9°C 27.8°F-2.3°C 79% 5.8 mph S9.3 kmh S 11.9 mph19.2 kmh 30.20 in1022.7 mb 0.00 in0.0 mm 0.00 in0.0 mm 0.00 in0.0 mm
12:15 AM 34.0°F1.1°C 27.8°F-2.3°C 78% 4.6 mph S7.4 kmh S 11.2 mph18.0 kmh 30.20 in1022.7 mb 0.00 in0.0 mm 0.00 in0.0 mm 0.00 in0.0 mm
12:00 AM 34.3°F1.3°C 28.2°F-2.1°C 78% 4.0 mph SSW6.4 kmh SSW 10.7 mph17.2 kmh 30.20 in1022.7 mb 0.00 in0.0 mm 0.00 in0.0 mm 0.00 in0.0 mm